sensor_id;sensor_type;location;lat;lon;timestamp;temperature;humidity
37052;DHT22;22964;52.272;13.356;2022-07-18T00:00:43;20.00;40.60
37052;DHT22;22964;52.272;13.356;2022-07-18T00:03:09;19.90;40.60
37052;DHT22;22964;52.272;13.356;2022-07-18T00:05:34;19.90;40.60
37052;DHT22;22964;52.272;13.356;2022-07-18T00:08:00;19.80;40.70
37052;DHT22;22964;52.272;13.356;2022-07-18T00:10:26;19.80;40.80
37052;DHT22;22964;52.272;13.356;2022-07-18T00:12:52;19.80;40.90
37052;DHT22;22964;52.272;13.356;2022-07-18T00:15:17;19.70;41.00
37052;DHT22;22964;52.272;13.356;2022-07-18T00:17:43;19.70;41.10
37052;DHT22;22964;52.272;13.356;2022-07-18T00:20:10;19.70;41.20
37052;DHT22;22964;52.272;13.356;2022-07-18T00:22:36;19.70;41.30
37052;DHT22;22964;52.272;13.356;2022-07-18T00:25:03;19.60;41.30
37052;DHT22;22964;52.272;13.356;2022-07-18T00:27:29;19.60;41.50
37052;DHT22;22964;52.272;13.356;2022-07-18T00:29:54;19.60;41.50
37052;DHT22;22964;52.272;13.356;2022-07-18T00:32:20;19.50;41.60
37052;DHT22;22964;52.272;13.356;2022-07-18T00:34:46;19.50;41.70
37052;DHT22;22964;52.272;13.356;2022-07-18T00:37:11;19.50;41.80
37052;DHT22;22964;52.272;13.356;2022-07-18T00:39:37;19.50;42.10
37052;DHT22;22964;52.272;13.356;2022-07-18T00:42:03;19.50;42.20
37052;DHT22;22964;52.272;13.356;2022-07-18T00:44:29;19.40;42.20
37052;DHT22;22964;52.272;13.356;2022-07-18T00:46:57;19.50;42.30
37052;DHT22;22964;52.272;13.356;2022-07-18T00:49:23;19.40;42.50
37052;DHT22;22964;52.272;13.356;2022-07-18T00:51:49;19.40;42.40
37052;DHT22;22964;52.272;13.356;2022-07-18T00:54:15;19.40;42.50
37052;DHT22;22964;52.272;13.356;2022-07-18T00:56:42;19.50;42.70
37052;DHT22;22964;52.272;13.356;2022-07-18T00:59:10;19.40;42.70
37052;DHT22;22964;52.272;13.356;2022-07-18T01:01:36;19.40;43.00
37052;DHT22;22964;52.272;13.356;2022-07-18T01:04:10;19.40;43.00
37052;DHT22;22964;52.272;13.356;2022-07-18T01:06:35;19.50;43.20
37052;DHT22;22964;52.272;13.356;2022-07-18T01:09:02;19.50;43.30
37052;DHT22;22964;52.272;13.356;2022-07-18T01:11:27;19.50;43.30
37052;DHT22;22964;52.272;13.356;2022-07-18T01:13:53;19.50;43.30
37052;DHT22;22964;52.272;13.356;2022-07-18T01:16:20;19.50;43.40
37052;DHT22;22964;52.272;13.356;2022-07-18T01:18:47;19.50;43.30
37052;DHT22;22964;52.272;13.356;2022-07-18T01:21:14;19.40;43.20
37052;DHT22;22964;52.272;13.356;2022-07-18T01:23:41;19.40;43.20
37052;DHT22;22964;52.272;13.356;2022-07-18T01:26:07;19.40;43.30
37052;DHT22;22964;52.272;13.356;2022-07-18T01:28:33;19.40;43.40
37052;DHT22;22964;52.272;13.356;2022-07-18T01:30:58;19.40;43.50
37052;DHT22;22964;52.272;13.356;2022-07-18T01:33:24;19.30;43.30
37052;DHT22;22964;52.272;13.356;2022-07-18T01:35:50;19.30;43.50
37052;DHT22;22964;52.272;13.356;2022-07-18T01:38:16;19.30;43.70
37052;DHT22;22964;52.272;13.356;2022-07-18T01:40:44;19.30;43.60
37052;DHT22;22964;52.272;13.356;2022-07-18T01:43:09;19.20;43.70
37052;DHT22;22964;52.272;13.356;2022-07-18T01:45:35;19.10;43.70
37052;DHT22;22964;52.272;13.356;2022-07-18T01:48:01;19.10;43.80
37052;DHT22;22964;52.272;13.356;2022-07-18T01:50:26;19.10;43.90
37052;DHT22;22964;52.272;13.356;2022-07-18T01:52:53;19.10;43.90
37052;DHT22;22964;52.272;13.356;2022-07-18T01:55:18;19.00;44.00
37052;DHT22;22964;52.272;13.356;2022-07-18T01:57:44;19.00;44.10
37052;DHT22;22964;52.272;13.356;2022-07-18T02:00:11;18.90;44.20
37052;DHT22;22964;52.272;13.356;2022-07-18T02:02:38;18.80;44.30
37052;DHT22;22964;52.272;13.356;2022-07-18T02:05:05;18.80;44.40
37052;DHT22;22964;52.272;13.356;2022-07-18T02:07:34;18.80;44.60
37052;DHT22;22964;52.272;13.356;2022-07-18T02:10:01;18.70;44.60
37052;DHT22;22964;52.272;13.356;2022-07-18T02:12:27;18.70;44.60
37052;DHT22;22964;52.272;13.356;2022-07-18T02:14:52;18.70;44.70
37052;DHT22;22964;52.272;13.356;2022-07-18T02:17:18;18.60;44.70
37052;DHT22;22964;52.272;13.356;2022-07-18T02:19:44;18.50;44.80
37052;DHT22;22964;52.272;13.356;2022-07-18T02:22:10;18.60;44.90
37052;DHT22;22964;52.272;13.356;2022-07-18T02:24:36;18.50;45.00
37052;DHT22;22964;52.272;13.356;2022-07-18T02:27:02;18.40;45.00
37052;DHT22;22964;52.272;13.356;2022-07-18T02:29:28;18.40;45.20
37052;DHT22;22964;52.272;13.356;2022-07-18T02:31:54;18.40;45.20
37052;DHT22;22964;52.272;13.356;2022-07-18T02:34:20;18.30;45.20
37052;DHT22;22964;52.272;13.356;2022-07-18T02:36:45;18.30;45.20
37052;DHT22;22964;52.272;13.356;2022-07-18T02:39:11;18.20;45.30
37052;DHT22;22964;52.272;13.356;2022-07-18T02:41:37;18.20;45.30
37052;DHT22;22964;52.272;13.356;2022-07-18T02:44:03;18.10;45.50
37052;DHT22;22964;52.272;13.356;2022-07-18T02:46:29;18.10;45.50
37052;DHT22;22964;52.272;13.356;2022-07-18T02:48:55;18.10;45.60
37052;DHT22;22964;52.272;13.356;2022-07-18T02:51:21;18.00;45.60
37052;DHT22;22964;52.272;13.356;2022-07-18T02:53:46;18.00;45.80
37052;DHT22;22964;52.272;13.356;2022-07-18T02:56:12;17.90;45.80
37052;DHT22;22964;52.272;13.356;2022-07-18T02:58:38;17.90;45.90
37052;DHT22;22964;52.272;13.356;2022-07-18T03:01:04;17.80;46.00
37052;DHT22;22964;52.272;13.356;2022-07-18T03:03:29;17.80;46.10
37052;DHT22;22964;52.272;13.356;2022-07-18T03:05:55;17.70;46.20
37052;DHT22;22964;52.272;13.356;2022-07-18T03:08:20;17.70;46.20
37052;DHT22;22964;52.272;13.356;2022-07-18T03:10:46;17.70;46.40
37052;DHT22;22964;52.272;13.356;2022-07-18T03:13:12;17.70;47.20
37052;DHT22;22964;52.272;13.356;2022-07-18T03:15:41;17.60;47.30
37052;DHT22;22964;52.272;13.356;2022-07-18T03:18:07;17.60;46.70
37052;DHT22;22964;52.272;13.356;2022-07-18T03:20:32;17.60;46.70
37052;DHT22;22964;52.272;13.356;2022-07-18T03:22:58;17.60;46.80
37052;DHT22;22964;52.272;13.356;2022-07-18T03:25:25;17.60;46.80
37052;DHT22;22964;52.272;13.356;2022-07-18T03:27:51;17.60;47.00
37052;DHT22;22964;52.272;13.356;2022-07-18T03:30:17;17.50;47.00
37052;DHT22;22964;52.272;13.356;2022-07-18T03:32:43;17.50;47.00
37052;DHT22;22964;52.272;13.356;2022-07-18T03:35:09;17.50;47.00
37052;DHT22;22964;52.272;13.356;2022-07-18T03:37:35;17.50;47.10
37052;DHT22;22964;52.272;13.356;2022-07-18T03:40:00;17.50;47.10
37052;DHT22;22964;52.272;13.356;2022-07-18T03:42:26;17.40;47.20
37052;DHT22;22964;52.272;13.356;2022-07-18T03:44:52;17.40;47.20
37052;DHT22;22964;52.272;13.356;2022-07-18T03:47:17;17.40;47.20
37052;DHT22;22964;52.272;13.356;2022-07-18T03:49:43;17.40;47.30
37052;DHT22;22964;52.272;13.356;2022-07-18T03:52:09;17.40;47.40
37052;DHT22;22964;52.272;13.356;2022-07-18T03:54:34;17.30;47.50
37052;DHT22;22964;52.272;13.356;2022-07-18T03:57:00;17.40;47.70
37052;DHT22;22964;52.272;13.356;2022-07-18T03:59:26;17.40;47.90
37052;DHT22;22964;52.272;13.356;2022-07-18T04:01:51;17.40;48.00
37052;DHT22;22964;52.272;13.356;2022-07-18T04:04:17;17.40;48.10
37052;DHT22;22964;52.272;13.356;2022-07-18T04:06:43;17.40;48.20
37052;DHT22;22964;52.272;13.356;2022-07-18T04:09:08;17.40;48.30
37052;DHT22;22964;52.272;13.356;2022-07-18T04:11:34;17.40;48.30
37052;DHT22;22964;52.272;13.356;2022-07-18T04:14:00;17.50;48.50
37052;DHT22;22964;52.272;13.356;2022-07-18T04:16:26;17.40;48.50
37052;DHT22;22964;52.272;13.356;2022-07-18T04:18:51;17.50;48.60
37052;DHT22;22964;52.272;13.356;2022-07-18T04:21:17;17.50;48.70
37052;DHT22;22964;52.272;13.356;2022-07-18T04:23:43;17.50;48.70
37052;DHT22;22964;52.272;13.356;2022-07-18T04:26:08;17.60;48.80
37052;DHT22;22964;52.272;13.356;2022-07-18T04:28:34;17.60;49.60
37052;DHT22;22964;52.272;13.356;2022-07-18T04:31:00;17.60;49.70
37052;DHT22;22964;52.272;13.356;2022-07-18T04:33:26;17.70;49.10
37052;DHT22;22964;52.272;13.356;2022-07-18T04:35:52;17.80;49.10
37052;DHT22;22964;52.272;13.356;2022-07-18T04:38:17;17.80;49.10
37052;DHT22;22964;52.272;13.356;2022-07-18T04:40:43;17.80;49.10
37052;DHT22;22964;52.272;13.356;2022-07-18T04:43:09;17.90;49.20
37052;DHT22;22964;52.272;13.356;2022-07-18T04:45:35;18.00;49.30
37052;DHT22;22964;52.272;13.356;2022-07-18T04:48:03;18.00;49.40
37052;DHT22;22964;52.272;13.356;2022-07-18T04:50:29;18.10;49.40
37052;DHT22;22964;52.272;13.356;2022-07-18T04:52:56;18.10;49.40
37052;DHT22;22964;52.272;13.356;2022-07-18T04:55:23;18.20;49.50
37052;DHT22;22964;52.272;13.356;2022-07-18T04:57:50;18.30;49.40
37052;DHT22;22964;52.272;13.356;2022-07-18T05:00:19;18.40;49.30
37052;DHT22;22964;52.272;13.356;2022-07-18T05:02:47;18.50;49.90
37052;DHT22;22964;52.272;13.356;2022-07-18T05:05:15;18.60;49.10
37052;DHT22;22964;52.272;13.356;2022-07-18T05:07:42;18.70;49.10
37052;DHT22;22964;52.272;13.356;2022-07-18T05:10:09;18.80;49.10
37052;DHT22;22964;52.272;13.356;2022-07-18T05:12:36;18.90;49.00
37052;DHT22;22964;52.272;13.356;2022-07-18T05:15:05;19.00;48.90
37052;DHT22;22964;52.272;13.356;2022-07-18T05:17:31;19.10;49.00
37052;DHT22;22964;52.272;13.356;2022-07-18T05:19:57;19.20;48.80
37052;DHT22;22964;52.272;13.356;2022-07-18T05:22:23;19.40;48.60
37052;DHT22;22964;52.272;13.356;2022-07-18T05:24:49;19.50;48.40
37052;DHT22;22964;52.272;13.356;2022-07-18T05:27:14;19.70;48.40
37052;DHT22;22964;52.272;13.356;2022-07-18T05:29:40;19.80;48.30
37052;DHT22;22964;52.272;13.356;2022-07-18T05:32:06;20.00;48.20
37052;DHT22;22964;52.272;13.356;2022-07-18T05:34:33;20.10;48.10
37052;DHT22;22964;52.272;13.356;2022-07-18T05:36:58;20.20;47.90
37052;DHT22;22964;52.272;13.356;2022-07-18T05:39:24;20.30;47.90
37052;DHT22;22964;52.272;13.356;2022-07-18T05:41:50;20.50;47.70
37052;DHT22;22964;52.272;13.356;2022-07-18T05:44:16;20.70;47.50
37052;DHT22;22964;52.272;13.356;2022-07-18T05:46:41;20.80;47.30
37052;DHT22;22964;52.272;13.356;2022-07-18T05:49:07;20.90;47.20
37052;DHT22;22964;52.272;13.356;2022-07-18T05:51:32;21.10;47.10
37052;DHT22;22964;52.272;13.356;2022-07-18T05:53:58;21.30;47.00
37052;DHT22;22964;52.272;13.356;2022-07-18T05:56:24;21.40;46.90
37052;DHT22;22964;52.272;13.356;2022-07-18T05:58:49;21.60;46.50
37052;DHT22;22964;52.272;13.356;2022-07-18T06:01:15;21.70;46.40
37052;DHT22;22964;52.272;13.356;2022-07-18T06:03:46;21.90;46.20
37052;DHT22;22964;52.272;13.356;2022-07-18T06:06:13;22.10;46.00
37052;DHT22;22964;52.272;13.356;2022-07-18T06:08:39;22.30;45.70
37052;DHT22;22964;52.272;13.356;2022-07-18T06:11:04;22.50;45.50
37052;DHT22;22964;52.272;13.356;2022-07-18T06:13:33;22.60;45.20
37052;DHT22;22964;52.272;13.356;2022-07-18T06:15:59;22.80;45.00
37052;DHT22;22964;52.272;13.356;2022-07-18T06:18:24;22.90;44.80
37052;DHT22;22964;52.272;13.356;2022-07-18T06:20:50;23.10;44.50
37052;DHT22;22964;52.272;13.356;2022-07-18T06:23:16;23.30;44.40
37052;DHT22;22964;52.272;13.356;2022-07-18T06:25:41;23.40;44.10
37052;DHT22;22964;52.272;13.356;2022-07-18T06:28:07;23.60;44.00
37052;DHT22;22964;52.272;13.356;2022-07-18T06:30:33;23.80;43.70
37052;DHT22;22964;52.272;13.356;2022-07-18T06:32:58;24.00;43.50
37052;DHT22;22964;52.272;13.356;2022-07-18T06:35:24;24.10;43.20
37052;DHT22;22964;52.272;13.356;2022-07-18T06:37:50;24.30;42.90
37052;DHT22;22964;52.272;13.356;2022-07-18T06:40:16;24.50;42.60
37052;DHT22;22964;52.272;13.356;2022-07-18T06:42:41;24.60;42.40
37052;DHT22;22964;52.272;13.356;2022-07-18T06:45:07;24.80;42.10
37052;DHT22;22964;52.272;13.356;2022-07-18T06:47:33;25.00;42.00
37052;DHT22;22964;52.272;13.356;2022-07-18T06:49:59;25.10;41.70
37052;DHT22;22964;52.272;13.356;2022-07-18T06:52:24;25.30;41.60
37052;DHT22;22964;52.272;13.356;2022-07-18T06:54:50;25.50;40.90
37052;DHT22;22964;52.272;13.356;2022-07-18T06:57:16;25.70;40.80
37052;DHT22;22964;52.272;13.356;2022-07-18T06:59:42;25.80;40.70
37052;DHT22;22964;52.272;13.356;2022-07-18T07:02:07;25.90;40.30
37052;DHT22;22964;52.272;13.356;2022-07-18T07:04:33;26.10;40.30
37052;DHT22;22964;52.272;13.356;2022-07-18T07:06:59;26.20;40.30
37052;DHT22;22964;52.272;13.356;2022-07-18T07:09:25;26.30;40.10
37052;DHT22;22964;52.272;13.356;2022-07-18T07:11:51;26.50;39.80
37052;DHT22;22964;52.272;13.356;2022-07-18T07:14:16;26.60;39.70
37052;DHT22;22964;52.272;13.356;2022-07-18T07:16:42;26.80;39.50
37052;DHT22;22964;52.272;13.356;2022-07-18T07:19:08;26.90;39.30
37052;DHT22;22964;52.272;13.356;2022-07-18T07:21:33;27.00;39.00
37052;DHT22;22964;52.272;13.356;2022-07-18T07:23:59;27.10;39.00
37052;DHT22;22964;52.272;13.356;2022-07-18T07:26:25;27.20;38.70
37052;DHT22;22964;52.272;13.356;2022-07-18T07:28:50;27.40;38.70
37052;DHT22;22964;52.272;13.356;2022-07-18T07:31:16;27.50;38.30
37052;DHT22;22964;52.272;13.356;2022-07-18T07:33:42;27.70;38.10
37052;DHT22;22964;52.272;13.356;2022-07-18T07:36:10;27.80;38.20
37052;DHT22;22964;52.272;13.356;2022-07-18T07:38:36;27.90;38.00
37052;DHT22;22964;52.272;13.356;2022-07-18T07:41:02;28.10;37.70
37052;DHT22;22964;52.272;13.356;2022-07-18T07:43:28;28.20;37.40
37052;DHT22;22964;52.272;13.356;2022-07-18T07:45:54;28.40;37.10
37052;DHT22;22964;52.272;13.356;2022-07-18T07:48:21;28.60;36.10
37052;DHT22;22964;52.272;13.356;2022-07-18T07:50:48;28.70;36.30
37052;DHT22;22964;52.272;13.356;2022-07-18T07:53:13;28.80;36.00
37052;DHT22;22964;52.272;13.356;2022-07-18T07:55:39;28.90;35.80
37052;DHT22;22964;52.272;13.356;2022-07-18T07:58:05;29.00;35.70
37052;DHT22;22964;52.272;13.356;2022-07-18T08:00:30;29.10;35.70
37052;DHT22;22964;52.272;13.356;2022-07-18T08:02:59;29.20;35.70
37052;DHT22;22964;52.272;13.356;2022-07-18T08:05:28;29.40;35.60
37052;DHT22;22964;52.272;13.356;2022-07-18T08:07:54;29.50;35.20
37052;DHT22;22964;52.272;13.356;2022-07-18T08:10:20;29.70;35.30
37052;DHT22;22964;52.272;13.356;2022-07-18T08:12:46;29.80;34.80
37052;DHT22;22964;52.272;13.356;2022-07-18T08:15:11;29.90;34.50
37052;DHT22;22964;52.272;13.356;2022-07-18T08:17:37;30.10;34.10
37052;DHT22;22964;52.272;13.356;2022-07-18T08:20:03;30.20;33.60
37052;DHT22;22964;52.272;13.356;2022-07-18T08:22:29;30.30;33.50
37052;DHT22;22964;52.272;13.356;2022-07-18T08:24:55;30.40;33.30
37052;DHT22;22964;52.272;13.356;2022-07-18T08:27:21;30.50;33.20
37052;DHT22;22964;52.272;13.356;2022-07-18T08:29:46;30.50;33.20
37052;DHT22;22964;52.272;13.356;2022-07-18T08:32:12;30.50;33.20
37052;DHT22;22964;52.272;13.356;2022-07-18T08:34:38;30.60;33.30
37052;DHT22;22964;52.272;13.356;2022-07-18T08:37:04;30.70;32.90
37052;DHT22;22964;52.272;13.356;2022-07-18T08:39:31;30.80;32.70
37052;DHT22;22964;52.272;13.356;2022-07-18T08:42:00;31.00;32.40
37052;DHT22;22964;52.272;13.356;2022-07-18T08:44:29;31.10;31.40
37052;DHT22;22964;52.272;13.356;2022-07-18T08:46:57;31.20;31.80
37052;DHT22;22964;52.272;13.356;2022-07-18T08:49:25;31.30;31.50
37052;DHT22;22964;52.272;13.356;2022-07-18T08:51:51;31.50;32.10
37052;DHT22;22964;52.272;13.356;2022-07-18T08:54:17;31.60;31.60
37052;DHT22;22964;52.272;13.356;2022-07-18T08:56:43;31.70;30.90
37052;DHT22;22964;52.272;13.356;2022-07-18T08:59:09;31.80;30.40
37052;DHT22;22964;52.272;13.356;2022-07-18T09:01:34;31.80;30.30
37052;DHT22;22964;52.272;13.356;2022-07-18T09:04:00;31.90;30.50
37052;DHT22;22964;52.272;13.356;2022-07-18T09:06:48;31.90;30.80
37052;DHT22;22964;52.272;13.356;2022-07-18T09:09:15;31.90;29.80
37052;DHT22;22964;52.272;13.356;2022-07-18T09:17:12;32.10;29.40
37052;DHT22;22964;52.272;13.356;2022-07-18T09:22:23;32.30;29.10
37052;DHT22;22964;52.272;13.356;2022-07-18T09:27:29;32.30;28.80
37052;DHT22;22964;52.272;13.356;2022-07-18T09:32:49;32.40;28.20
37052;DHT22;22964;52.272;13.356;2022-07-18T09:35:25;32.40;28.80
37052;DHT22;22964;52.272;13.356;2022-07-18T09:40:35;32.30;28.20
37052;DHT22;22964;52.272;13.356;2022-07-18T09:43:03;32.30;28.40
37052;DHT22;22964;52.272;13.356;2022-07-18T09:45:34;32.40;28.30
37052;DHT22;22964;52.272;13.356;2022-07-18T09:48:05;32.40;28.30
37052;DHT22;22964;52.272;13.356;2022-07-18T09:50:36;32.50;28.40
37052;DHT22;22964;52.272;13.356;2022-07-18T09:53:10;32.60;28.50
37052;DHT22;22964;52.272;13.356;2022-07-18T09:55:50;32.70;27.90
37052;DHT22;22964;52.272;13.356;2022-07-18T09:58:21;32.80;28.00
37052;DHT22;22964;52.272;13.356;2022-07-18T10:00:48;32.90;28.30
37052;DHT22;22964;52.272;13.356;2022-07-18T10:03:14;33.00;28.50
37052;DHT22;22964;52.272;13.356;2022-07-18T10:05:40;33.20;28.40
37052;DHT22;22964;52.272;13.356;2022-07-18T10:08:11;33.40;28.20
37052;DHT22;22964;52.272;13.356;2022-07-18T10:10:38;33.50;27.80
37052;DHT22;22964;52.272;13.356;2022-07-18T10:13:06;33.70;28.60
37052;DHT22;22964;52.272;13.356;2022-07-18T10:15:34;33.80;27.80
37052;DHT22;22964;52.272;13.356;2022-07-18T10:18:01;33.90;27.40
37052;DHT22;22964;52.272;13.356;2022-07-18T10:23:17;34.00;27.00
37052;DHT22;22964;52.272;13.356;2022-07-18T10:25:44;34.10;26.60
37052;DHT22;22964;52.272;13.356;2022-07-18T10:28:12;34.20;27.10
37052;DHT22;22964;52.272;13.356;2022-07-18T10:33:35;34.20;26.30
37052;DHT22;22964;52.272;13.356;2022-07-18T10:36:00;34.20;26.40
37052;DHT22;22964;52.272;13.356;2022-07-18T10:38:27;34.20;25.90
37052;DHT22;22964;52.272;13.356;2022-07-18T10:41:10;34.20;26.40
37052;DHT22;22964;52.272;13.356;2022-07-18T10:43:41;34.20;25.40
37052;DHT22;22964;52.272;13.356;2022-07-18T10:46:07;34.20;26.30
37052;DHT22;22964;52.272;13.356;2022-07-18T10:51:13;34.30;26.80
37052;DHT22;22964;52.272;13.356;2022-07-18T10:59:19;34.40;25.70
37052;DHT22;22964;52.272;13.356;2022-07-18T11:01:50;34.50;25.50
37052;DHT22;22964;52.272;13.356;2022-07-18T11:04:31;34.60;25.90
37052;DHT22;22964;52.272;13.356;2022-07-18T11:07:13;34.60;25.60
37052;DHT22;22964;52.272;13.356;2022-07-18T11:09:48;34.70;25.40
37052;DHT22;22964;52.272;13.356;2022-07-18T11:12:31;34.80;27.00
37052;DHT22;22964;52.272;13.356;2022-07-18T11:15:02;35.00;25.70
37052;DHT22;22964;52.272;13.356;2022-07-18T11:17:53;35.10;25.70
37052;DHT22;22964;52.272;13.356;2022-07-18T11:22:51;35.30;24.90
37052;DHT22;22964;52.272;13.356;2022-07-18T11:25:17;35.40;25.20
37052;DHT22;22964;52.272;13.356;2022-07-18T11:27:44;35.30;25.00
37052;DHT22;22964;52.272;13.356;2022-07-18T11:30:16;35.40;25.10
37052;DHT22;22964;52.272;13.356;2022-07-18T11:32:42;35.50;24.70
37052;DHT22;22964;52.272;13.356;2022-07-18T11:35:08;35.50;25.00
37052;DHT22;22964;52.272;13.356;2022-07-18T11:37:38;35.60;24.70
37052;DHT22;22964;52.272;13.356;2022-07-18T11:40:07;35.60;24.50
37052;DHT22;22964;52.272;13.356;2022-07-18T11:42:40;35.60;24.20
37052;DHT22;22964;52.272;13.356;2022-07-18T11:45:09;35.70;24.20
37052;DHT22;22964;52.272;13.356;2022-07-18T11:47:52;35.70;24.60
37052;DHT22;22964;52.272;13.356;2022-07-18T11:50:25;35.70;23.80
37052;DHT22;22964;52.272;13.356;2022-07-18T11:52:56;35.80;24.40
37052;DHT22;22964;52.272;13.356;2022-07-18T11:55:31;35.90;24.10
37052;DHT22;22964;52.272;13.356;2022-07-18T11:58:08;35.90;25.40
37052;DHT22;22964;52.272;13.356;2022-07-18T12:00:34;36.10;24.40
37052;DHT22;22964;52.272;13.356;2022-07-18T12:05:35;36.40;24.30
37052;DHT22;22964;52.272;13.356;2022-07-18T12:08:01;36.50;24.20
37052;DHT22;22964;52.272;13.356;2022-07-18T12:10:26;36.60;24.30
37052;DHT22;22964;52.272;13.356;2022-07-18T12:12:53;36.70;24.00
37052;DHT22;22964;52.272;13.356;2022-07-18T12:15:19;36.80;23.80
37052;DHT22;22964;52.272;13.356;2022-07-18T12:17:47;36.90;23.70
37052;DHT22;22964;52.272;13.356;2022-07-18T12:20:20;36.90;23.40
37052;DHT22;22964;52.272;13.356;2022-07-18T12:23:06;36.90;23.40
37052;DHT22;22964;52.272;13.356;2022-07-18T12:25:40;36.80;23.10
37052;DHT22;22964;52.272;13.356;2022-07-18T12:28:17;36.80;23.00
37052;DHT22;22964;52.272;13.356;2022-07-18T12:30:44;36.70;23.00
37052;DHT22;22964;52.272;13.356;2022-07-18T12:33:10;36.80;23.30
37052;DHT22;22964;52.272;13.356;2022-07-18T12:35:37;36.80;23.30
37052;DHT22;22964;52.272;13.356;2022-07-18T12:40:42;36.80;23.20
37052;DHT22;22964;52.272;13.356;2022-07-18T12:43:11;36.90;22.70
37052;DHT22;22964;52.272;13.356;2022-07-18T12:45:37;37.00;22.90
37052;DHT22;22964;52.272;13.356;2022-07-18T12:48:06;37.00;22.70
37052;DHT22;22964;52.272;13.356;2022-07-18T12:50:32;37.00;22.40
37052;DHT22;22964;52.272;13.356;2022-07-18T12:52:58;37.00;22.80
37052;DHT22;22964;52.272;13.356;2022-07-18T12:55:25;36.90;22.80
37052;DHT22;22964;52.272;13.356;2022-07-18T12:57:51;36.90;22.70
37052;DHT22;22964;52.272;13.356;2022-07-18T13:00:17;37.00;23.00
37052;DHT22;22964;52.272;13.356;2022-07-18T13:02:43;37.10;23.10
37052;DHT22;22964;52.272;13.356;2022-07-18T13:05:09;37.20;22.70
37052;DHT22;22964;52.272;13.356;2022-07-18T13:07:35;37.50;22.80
37052;DHT22;22964;52.272;13.356;2022-07-18T13:10:02;37.60;22.40
37052;DHT22;22964;52.272;13.356;2022-07-18T13:12:27;37.80;22.40
37052;DHT22;22964;52.272;13.356;2022-07-18T13:14:53;37.90;22.10
37052;DHT22;22964;52.272;13.356;2022-07-18T13:17:19;38.00;22.00
37052;DHT22;22964;52.272;13.356;2022-07-18T13:19:44;38.00;22.00
37052;DHT22;22964;52.272;13.356;2022-07-18T13:22:11;38.10;21.90
37052;DHT22;22964;52.272;13.356;2022-07-18T13:24:36;38.10;21.80
37052;DHT22;22964;52.272;13.356;2022-07-18T13:27:04;38.00;21.60
37052;DHT22;22964;52.272;13.356;2022-07-18T13:29:30;37.90;21.60
37052;DHT22;22964;52.272;13.356;2022-07-18T13:31:55;37.90;21.60
37052;DHT22;22964;52.272;13.356;2022-07-18T13:34:22;37.80;21.70
37052;DHT22;22964;52.272;13.356;2022-07-18T13:36:52;37.70;21.80
37052;DHT22;22964;52.272;13.356;2022-07-18T13:39:19;37.60;21.40
37052;DHT22;22964;52.272;13.356;2022-07-18T13:41:45;37.60;21.60
37052;DHT22;22964;52.272;13.356;2022-07-18T13:44:11;37.50;21.60
37052;DHT22;22964;52.272;13.356;2022-07-18T13:46:38;37.50;21.60
37052;DHT22;22964;52.272;13.356;2022-07-18T13:49:10;37.40;21.60
37052;DHT22;22964;52.272;13.356;2022-07-18T13:51:37;37.40;21.50
37052;DHT22;22964;52.272;13.356;2022-07-18T13:54:06;37.40;21.60
37052;DHT22;22964;52.272;13.356;2022-07-18T13:56:32;37.40;21.40
37052;DHT22;22964;52.272;13.356;2022-07-18T13:58:58;37.40;21.60
37052;DHT22;22964;52.272;13.356;2022-07-18T14:01:23;37.30;21.40
37052;DHT22;22964;52.272;13.356;2022-07-18T14:03:50;37.30;21.60
37052;DHT22;22964;52.272;13.356;2022-07-18T14:06:15;37.20;21.50
37052;DHT22;22964;52.272;13.356;2022-07-18T14:08:41;37.20;21.50
37052;DHT22;22964;52.272;13.356;2022-07-18T14:11:07;37.20;21.60
37052;DHT22;22964;52.272;13.356;2022-07-18T14:13:33;37.20;21.50
37052;DHT22;22964;52.272;13.356;2022-07-18T14:15:58;37.10;21.50
37052;DHT22;22964;52.272;13.356;2022-07-18T14:18:24;37.10;21.60
37052;DHT22;22964;52.272;13.356;2022-07-18T14:20:50;37.10;21.60
37052;DHT22;22964;52.272;13.356;2022-07-18T14:23:15;37.10;21.50
37052;DHT22;22964;52.272;13.356;2022-07-18T14:25:41;37.20;21.60
37052;DHT22;22964;52.272;13.356;2022-07-18T14:28:07;37.20;21.60
37052;DHT22;22964;52.272;13.356;2022-07-18T14:30:33;37.20;21.60
37052;DHT22;22964;52.272;13.356;2022-07-18T14:32:58;37.20;21.60
37052;DHT22;22964;52.272;13.356;2022-07-18T14:35:24;37.30;21.70
37052;DHT22;22964;52.272;13.356;2022-07-18T14:37:50;37.30;21.80
37052;DHT22;22964;52.272;13.356;2022-07-18T14:40:16;37.40;21.60
37052;DHT22;22964;52.272;13.356;2022-07-18T14:42:41;37.50;21.50
37052;DHT22;22964;52.272;13.356;2022-07-18T14:45:08;37.60;21.40
37052;DHT22;22964;52.272;13.356;2022-07-18T14:47:34;37.60;21.30
37052;DHT22;22964;52.272;13.356;2022-07-18T14:50:04;37.60;21.10
37052;DHT22;22964;52.272;13.356;2022-07-18T14:52:31;37.50;21.00
37052;DHT22;22964;52.272;13.356;2022-07-18T14:54:57;37.40;21.10
37052;DHT22;22964;52.272;13.356;2022-07-18T14:57:22;37.30;21.20
37052;DHT22;22964;52.272;13.356;2022-07-18T14:59:48;37.20;21.10
37052;DHT22;22964;52.272;13.356;2022-07-18T15:02:14;37.10;21.20
37052;DHT22;22964;52.272;13.356;2022-07-18T15:04:40;37.10;21.30
37052;DHT22;22964;52.272;13.356;2022-07-18T15:07:06;37.00;21.30
37052;DHT22;22964;52.272;13.356;2022-07-18T15:09:32;36.90;21.40
37052;DHT22;22964;52.272;13.356;2022-07-18T15:11:57;36.90;21.30
37052;DHT22;22964;52.272;13.356;2022-07-18T15:14:23;36.80;21.10
37052;DHT22;22964;52.272;13.356;2022-07-18T15:16:49;36.80;21.30
37052;DHT22;22964;52.272;13.356;2022-07-18T15:19:14;36.70;21.30
37052;DHT22;22964;52.272;13.356;2022-07-18T15:21:40;36.60;21.30
37052;DHT22;22964;52.272;13.356;2022-07-18T15:24:06;36.50;21.40
37052;DHT22;22964;52.272;13.356;2022-07-18T15:26:33;36.50;21.60
37052;DHT22;22964;52.272;13.356;2022-07-18T15:28:59;36.40;21.60
37052;DHT22;22964;52.272;13.356;2022-07-18T15:31:24;36.40;21.60
37052;DHT22;22964;52.272;13.356;2022-07-18T15:33:50;36.50;21.60
37052;DHT22;22964;52.272;13.356;2022-07-18T15:36:16;36.50;21.50
37052;DHT22;22964;52.272;13.356;2022-07-18T15:38:41;36.50;21.60
37052;DHT22;22964;52.272;13.356;2022-07-18T15:41:08;36.50;21.50
37052;DHT22;22964;52.272;13.356;2022-07-18T15:43:35;36.50;21.40
37052;DHT22;22964;52.272;13.356;2022-07-18T15:46:00;36.40;21.40
37052;DHT22;22964;52.272;13.356;2022-07-18T15:48:26;36.40;21.50
37052;DHT22;22964;52.272;13.356;2022-07-18T15:50:52;36.40;21.50